Blair, NE

8:56 PM CDT on May 22, 2017 (GMT -0500)
Blair Municipal

Weather History for KBTA - February, 2014

Change the Weather History Date:

Monday, February 17, 2014

  Actual Average (KOMA) Record (KOMA)
Temperature  
Mean Temperature 41 °F -  
Max Temperature 53 °F 40 °F 75 °F (2017)
Min Temperature 29 °F 18 °F -15 °F (1958)
Degree Days  
Heating Degree Days 24    
Moisture  
Dew Point 25 °F    
Average Humidity 62    
Maximum Humidity 94    
Minimum Humidity 29    
Precipitation  
Precipitation 0.04 in - - ()
Sea Level Pressure  
Sea Level Pressure 29.85 in    
Wind  
Wind Speed 11 mph (SW)    
Max Wind Speed 23 mph    
Max Gust Speed 32 mph    
Visibility 9 miles    
Events Snow    
Averages and records for this station are not official NWS values.
T = Trace of Precipitation, MM = Missing Value Source: NWS Daily Summary

Daily Weather History Graph

Daily Weather History Graph

Search for Another Location

Airport or City:

Trip Planner

Search our weather history database for the weather conditions in past years. The results will help you decide how hot, cold, wet, or windy it might be!

Date:

Astronomy

Feb. 17, 2014 Rise Set
Actual Time 7:16 AM CST 6:00 PM CST
Civil Twilight 6:48 AM CST 6:29 PM CST
Nautical Twilight 6:16 AM CST 7:01 PM CST
Astronomical Twilight 5:44 AM CST 7:33 PM CST
Moon 8:59 PM CST (2/17) 8:15 AM CST (2/17)
Length of Visible Light 11h 40m
Length of Day
10h 44m
Waning Gibbous, 93% of the Moon is Illuminated
Feb 17
Waning Gibbous
Feb 22
Last Quarter
Mar 1
New
Mar 8
First Quarter
Mar 16
Full

Hourly Weather History & Observations

Time (CST) Temp. Windchill Dew Point Humidity Pressure Visibility Wind Dir Wind Speed Gust Speed Precip Events Conditions
12:15 AM 30.2 °F 20.2 °F 24.8 °F 80% 29.84 in 10.0 mi SSE 12.7 mph 16.1 mph N/A   Scattered Clouds
12:35 AM 30.0 °F 19.5 °F 24.8 °F 81% 29.83 in 10.0 mi SE 13.8 mph 19.6 mph N/A   Scattered Clouds
12:55 AM 30.0 °F 21.1 °F 25.2 °F 82% 29.84 in 10.0 mi SE 10.4 mph 17.3 mph N/A   Mostly Cloudy
1:15 AM 30.2 °F 22.6 °F 25.3 °F 82% 29.83 in 10.0 mi SE 8.1 mph - N/A   Overcast
1:35 AM 30.0 °F 23.2 °F 25.3 °F 83% 29.82 in 7.0 mi SE 6.9 mph 10.4 mph N/A   Overcast
1:55 AM 30.2 °F 20.2 °F 26.4 °F 86% 29.80 in 5.0 mi ESE 12.7 mph - N/A   Overcast
2:15 AM 30.0 °F 21.1 °F 26.6 °F 87% 29.78 in 7.0 mi ESE 10.4 mph - N/A   Overcast
2:35 AM 29.3 °F 19.1 °F 26.1 °F 88% 29.78 in 7.0 mi SE 12.7 mph - N/A   Overcast
2:55 AM 29.3 °F 19.6 °F 25.7 °F 86% 29.76 in 10.0 mi SE 11.5 mph - N/A   Overcast
3:15 AM 29.3 °F 21.5 °F 25.7 °F 86% 29.76 in 10.0 mi SSE 8.1 mph - N/A   Overcast
3:35 AM 29.7 °F 22.8 °F 26.1 °F 86% 29.77 in 10.0 mi South 6.9 mph - N/A   Overcast
3:55 AM 30.0 °F 20.5 °F 26.2 °F 86% 29.82 in 10.0 mi WSW 11.5 mph - N/A   Overcast
4:15 AM 30.0 °F 23.2 °F 26.6 °F 87% 29.82 in 3.0 mi SW 6.9 mph - N/A Snow Light Snow
4:35 AM 29.3 °F 24.3 °F 27.0 °F 91% 29.81 in 1.5 mi SSW 4.6 mph - 0.01 in Snow Light Snow
4:55 AM 29.3 °F 23.2 °F 27.1 °F 92% 29.81 in 0.8 mi SSW 5.8 mph - 0.01 in Snow Snow
5:15 AM 29.3 °F 22.3 °F 27.3 °F 92% 29.81 in 1.0 mi SSW 6.9 mph - N/A Snow Light Snow
5:35 AM 29.3 °F 21.5 °F 27.5 °F 93% 29.80 in 1.8 mi SW 8.1 mph - N/A Snow Light Snow
5:55 AM 29.7 °F 22.8 °F 27.9 °F 93% 29.81 in 3.0 mi WSW 6.9 mph - N/A   Overcast
6:15 AM 29.8 °F 22.2 °F 28.2 °F 94% 29.81 in 4.0 mi West 8.1 mph - N/A   Overcast
6:35 AM 30.6 °F 23.1 °F 28.4 °F 92% 29.82 in 5.0 mi West 8.1 mph - N/A   Mostly Cloudy
6:55 AM 30.6 °F 23.8 °F 28.2 °F 91% 29.83 in 5.0 mi West 6.9 mph - N/A   Scattered Clouds
7:15 AM 31.1 °F 23.7 °F 28.8 °F 91% 29.84 in 5.0 mi West 8.1 mph - N/A   Clear
7:35 AM 32.0 °F 24.2 °F 30.0 °F 92% 29.84 in 5.0 mi West 9.2 mph - N/A   Clear
7:55 AM 32.2 °F 26.7 °F 30.0 °F 92% 29.85 in 7.0 mi West 5.8 mph - 0.01 in   Clear
8:15 AM 32.4 °F 25.3 °F 30.2 °F 92% 29.85 in 7.0 mi West 8.1 mph - N/A   Clear
8:35 AM 33.6 °F 26.8 °F 31.1 °F 90% 29.86 in 7.0 mi WSW 8.1 mph - 0.02 in   Clear
8:55 AM 35.2 °F 27.1 °F 32.0 °F 88% 29.86 in 10.0 mi West 11.5 mph 16.1 mph 0.02 in   Clear
9:15 AM 36.7 °F 28.4 °F 32.2 °F 84% 29.87 in 10.0 mi West 12.7 mph - N/A   Clear
9:35 AM 38.1 °F 29.8 °F 32.2 °F 79% 29.87 in 10.0 mi West 13.8 mph 21.9 mph N/A   Clear
9:55 AM 38.3 °F 30.1 °F 32.0 °F 78% 29.89 in 10.0 mi West 13.8 mph 23.0 mph N/A   Clear
10:15 AM 38.8 °F 30.8 °F 32.0 °F 76% 29.90 in 10.0 mi West 13.8 mph 20.7 mph N/A   Clear
10:35 AM 39.9 °F 32.5 °F 32.0 °F 73% 29.90 in 10.0 mi West 12.7 mph 21.9 mph N/A   Clear
10:55 AM 41.4 °F 33.6 °F 32.2 °F 70% 29.91 in 10.0 mi WNW 15.0 mph 20.7 mph N/A   Clear
11:15 AM 42.8 °F 35.1 °F 32.0 °F 66% 29.91 in 10.0 mi West 16.1 mph 25.3 mph N/A   Clear
11:35 AM 44.4 °F 36.1 °F 31.8 °F 61% 29.90 in 10.0 mi WNW 20.7 mph 27.6 mph N/A   Clear
11:55 AM 45.5 °F 38.1 °F 30.9 °F 57% 29.90 in 10.0 mi WNW 18.4 mph 28.8 mph N/A   Clear
12:15 PM 46.8 °F - 30.6 °F 53% 29.89 in 10.0 mi WNW 17.3 mph 28.8 mph N/A   Clear
12:35 PM 47.7 °F - 28.6 °F 48% 29.88 in 10.0 mi WNW 19.6 mph 27.6 mph N/A   Clear
12:55 PM 48.9 °F - 27.3 °F 43% 29.88 in 10.0 mi West 17.3 mph 27.6 mph N/A   Clear
1:15 PM 49.6 °F - 28.6 °F 44% 29.87 in 10.0 mi WNW 19.6 mph 26.5 mph N/A   Clear
1:35 PM 51.1 °F - 26.2 °F 38% 29.87 in 10.0 mi WNW 23.0 mph 32.2 mph N/A   Clear
1:55 PM 51.4 °F - 23.4 °F 33% 29.87 in 10.0 mi WNW 20.7 mph 31.1 mph N/A   Clear
2:15 PM 52.0 °F - 21.2 °F 30% 29.86 in 10.0 mi WNW 23.0 mph 32.2 mph N/A   Clear
2:35 PM 52.5 °F - 20.7 °F 29% 29.86 in 10.0 mi WNW 20.7 mph 31.1 mph N/A   Clear
2:55 PM 53.1 °F - 21.6 °F 29% 29.87 in 10.0 mi WNW 23.0 mph 28.8 mph N/A   Clear
3:15 PM 52.3 °F - 20.7 °F 29% 29.88 in 10.0 mi West 21.9 mph 31.1 mph N/A   Clear
3:35 PM 52.7 °F - 21.7 °F 30% 29.88 in 10.0 mi WNW 17.3 mph 25.3 mph N/A   Clear
3:55 PM 52.7 °F - 20.8 °F 29% 29.88 in 10.0 mi WNW 10.4 mph 20.7 mph N/A   Clear
4:15 PM 52.9 °F - 20.8 °F 29% 29.89 in 10.0 mi WNW 11.5 mph 20.7 mph N/A   Clear
4:35 PM 52.7 °F - 20.8 °F 29% 29.89 in 10.0 mi WNW 12.7 mph 17.3 mph N/A   Clear
4:55 PM 52.0 °F - 21.0 °F 30% 29.89 in 10.0 mi WNW 9.2 mph 19.6 mph N/A   Clear
5:15 PM 51.8 °F - 20.7 °F 30% 29.90 in 10.0 mi West 10.4 mph - N/A   Clear
5:35 PM 50.5 °F - 20.3 °F 30% 29.90 in 10.0 mi West 9.2 mph - N/A   Clear
5:55 PM 48.9 °F - 20.1 °F 32% 29.90 in 10.0 mi West 5.8 mph - N/A   Clear
6:15 PM 48.4 °F - 19.4 °F 32% 29.90 in 10.0 mi West 5.8 mph - N/A   Clear
6:35 PM 44.6 °F 42.2 °F 19.9 °F 37% 29.90 in 10.0 mi SW 4.6 mph - N/A   Clear
6:55 PM 43.3 °F 40.7 °F 20.1 °F 40% 29.90 in 10.0 mi SW 4.6 mph - N/A   Clear
7:15 PM 45.1 °F 42.0 °F 19.2 °F 36% 29.90 in 10.0 mi WSW 5.8 mph - N/A   Clear
7:35 PM 42.3 °F 39.4 °F 19.8 °F 41% 29.89 in 10.0 mi South 4.6 mph - N/A   Clear
7:55 PM 40.8 °F 38.8 °F 20.3 °F 44% 29.88 in 10.0 mi SE 3.5 mph - N/A   Clear
8:15 PM 39.0 °F 34.8 °F 20.8 °F 48% 29.87 in 10.0 mi SSE 5.8 mph - N/A   Clear
8:35 PM 38.3 °F 33.9 °F 21.0 °F 50% 29.87 in 10.0 mi SSE 5.8 mph - N/A   Clear
8:55 PM 38.3 °F 33.9 °F 21.4 °F 51% 29.86 in 10.0 mi SSE 5.8 mph - N/A   Clear
9:15 PM 37.9 °F 32.7 °F 21.6 °F 52% 29.85 in 10.0 mi SSE 6.9 mph - N/A   Clear
9:35 PM 38.1 °F 32.9 °F 21.2 °F 51% 29.84 in 10.0 mi SSE 6.9 mph - N/A   Clear
9:55 PM 37.9 °F 33.5 °F 21.2 °F 51% 29.85 in 10.0 mi SSE 5.8 mph - N/A   Clear
10:15 PM 37.2 °F 33.6 °F 21.2 °F 52% 29.85 in 10.0 mi South 4.6 mph - N/A   Clear
10:35 PM 35.4 °F 29.0 °F 21.2 °F 56% 29.85 in 10.0 mi South 8.1 mph - N/A   Clear
10:55 PM 38.5 °F 32.1 °F 20.7 °F 49% 29.84 in 10.0 mi South 9.2 mph - N/A   Clear
11:15 PM 37.6 °F 30.0 °F 21.4 °F 52% 29.83 in 10.0 mi South 11.5 mph - N/A   Clear
11:35 PM 37.8 °F 29.8 °F 21.9 °F 53% 29.81 in 10.0 mi South 12.7 mph - N/A   Clear
11:55 PM 38.1 °F 30.7 °F 21.6 °F 51% 29.81 in 10.0 mi South 11.5 mph - N/A   Clear